createdAt,value
2022-12-25T00:00:46.687Z,101030.66
2022-12-25T00:02:48.874Z,101022.41
2022-12-25T00:04:50.833Z,101019.19
2022-12-25T00:06:52.612Z,101039.81
2022-12-25T00:08:54.269Z,101022.97
2022-12-25T00:11:04.376Z,101022.13
2022-12-25T00:13:06.189Z,101039.94
2022-12-25T00:15:08.197Z,101051.94
2022-12-25T00:17:10.165Z,101041.69
2022-12-25T00:19:11.917Z,101072.31
2022-12-25T00:21:14.415Z,101079.75
2022-12-25T00:23:16.315Z,101085.25
2022-12-25T00:25:18.253Z,101072.22
2022-12-25T00:27:19.969Z,101063.38
2022-12-25T00:29:21.745Z,101040.16
2022-12-25T00:31:24.924Z,101086.53
2022-12-25T00:33:26.671Z,101089.09
2022-12-25T00:35:28.661Z,101093.81
2022-12-25T00:37:30.527Z,101096.66
2022-12-25T00:39:32.204Z,101088.41
2022-12-25T00:41:34.490Z,101065.06
2022-12-25T00:43:36.728Z,101098.13
2022-12-25T00:45:38.458Z,101100.38
2022-12-25T00:47:40.423Z,101101.91
2022-12-25T00:49:42.203Z,101104.13
2022-12-25T00:51:43.879Z,101109.22
2022-12-25T00:53:45.739Z,101107.31
2022-12-25T00:55:54.645Z,101099.28
2022-12-25T00:57:56.341Z,101093.09
2022-12-25T00:59:58.179Z,101084.47
2022-12-25T01:02:00.693Z,101105.44
2022-12-25T01:04:02.445Z,101109.09
2022-12-25T01:06:06.674Z,101117.16
2022-12-25T01:08:08.894Z,101123.44
2022-12-25T01:10:11.336Z,101131.97
2022-12-25T01:12:13.169Z,101125.03
2022-12-25T01:14:15.306Z,101110.84
2022-12-25T01:16:17.151Z,101109.47
2022-12-25T01:18:19.868Z,101107.13
2022-12-25T01:20:21.765Z,101109.38
2022-12-25T01:22:23.451Z,101119.03
2022-12-25T01:24:25.180Z,101096.25
2022-12-25T01:26:27.825Z,101106.38
2022-12-25T01:28:29.516Z,101114.94
2022-12-25T01:30:31.418Z,101104.06
2022-12-25T01:32:33.298Z,101106.16
2022-12-25T01:34:35.111Z,101118.72
2022-12-25T01:36:37.015Z,101108.22
2022-12-25T01:38:38.965Z,101117.88
2022-12-25T01:40:41.093Z,101122.97
2022-12-25T01:42:43.457Z,101121.19
2022-12-25T01:44:48.252Z,101127.56
2022-12-25T01:46:49.931Z,101120.88
2022-12-25T01:48:53.413Z,101120.16
2022-12-25T01:51:23.236Z,101001.78
2022-12-25T01:53:26.531Z,101106.84
2022-12-25T01:55:28.557Z,101109.00
2022-12-25T01:57:34.916Z,101112.47
2022-12-25T01:59:36.668Z,101130.84
2022-12-25T02:01:38.600Z,101116.81
2022-12-25T02:03:40.509Z,101115.31
2022-12-25T02:05:42.589Z,101121.22
2022-12-25T02:07:46.443Z,101107.53
2022-12-25T02:09:48.856Z,101131.88
2022-12-25T02:11:50.536Z,101111.84
2022-12-25T02:13:52.306Z,101097.13
2022-12-25T02:16:15.742Z,101129.63
2022-12-25T02:18:42.214Z,101131.22
2022-12-25T02:21:01.517Z,101102.75
2022-12-25T02:23:29.578Z,101116.31
2022-12-25T02:25:37.217Z,101115.69
2022-12-25T02:28:05.632Z,101109.59
2022-12-25T02:30:10.407Z,101115.31
2022-12-25T02:32:29.980Z,101114.72
2022-12-25T02:34:46.432Z,101124.00
2022-12-25T02:37:11.613Z,101126.53
2022-12-25T02:39:33.688Z,101104.13
2022-12-25T02:41:39.929Z,101073.94
2022-12-25T02:43:45.833Z,101120.06
2022-12-25T02:45:55.724Z,101116.88
2022-12-25T02:47:57.902Z,101102.81
2022-12-25T02:50:01.084Z,101078.78
2022-12-25T02:52:09.522Z,101107.44
2022-12-25T02:54:16.500Z,101123.31
2022-12-25T02:56:20.137Z,101126.41
2022-12-25T02:58:23.991Z,101127.59
2022-12-25T03:00:26.090Z,101093.66
2022-12-25T03:02:30.904Z,101104.97
2022-12-25T03:04:33.786Z,101117.81
2022-12-25T03:06:38.665Z,101108.59
2022-12-25T03:08:43.251Z,101136.28
2022-12-25T03:10:50.322Z,101114.84
2022-12-25T03:12:56.630Z,101152.16
2022-12-25T03:14:58.443Z,101151.44
2022-12-25T03:17:00.788Z,101150.56
2022-12-25T03:19:03.119Z,101146.72
2022-12-25T03:21:05.142Z,101134.91
2022-12-25T03:23:08.406Z,101138.00
2022-12-25T03:25:10.815Z,101131.06
2022-12-25T03:27:12.521Z,101154.25
2022-12-25T03:29:14.211Z,101159.03
2022-12-25T03:31:43.235Z,101122.94
2022-12-25T03:34:09.731Z,101139.06
2022-12-25T03:36:29.321Z,101168.47
2022-12-25T03:38:43.102Z,101158.44
2022-12-25T03:40:56.719Z,101173.09
2022-12-25T03:43:21.141Z,101173.84
2022-12-25T03:45:26.705Z,101178.16
2022-12-25T03:47:35.823Z,101180.41
2022-12-25T03:49:46.549Z,101179.94
2022-12-25T03:51:51.690Z,101172.16
2022-12-25T03:54:04.215Z,101163.69
2022-12-25T03:56:07.253Z,101158.28
2022-12-25T03:58:20.608Z,101174.91
2022-12-25T04:00:22.505Z,101161.75
2022-12-25T04:02:24.545Z,101160.72
2022-12-25T04:04:26.407Z,101165.06
2022-12-25T04:06:28.388Z,101182.09
2022-12-25T04:08:30.345Z,101159.16
2022-12-25T04:10:32.037Z,101162.72
2022-12-25T04:12:34.033Z,101187.13
2022-12-25T04:14:35.762Z,101187.91
2022-12-25T04:16:37.491Z,101177.56
2022-12-25T04:18:39.576Z,101155.56
2022-12-25T04:20:41.302Z,101186.72
2022-12-25T04:22:42.966Z,101194.22
2022-12-25T04:24:44.964Z,101183.66
2022-12-25T04:26:46.692Z,101191.53
2022-12-25T04:28:48.420Z,101177.47
2022-12-25T04:30:50.209Z,101187.72
2022-12-25T04:32:57.816Z,101185.09
2022-12-25T04:34:59.508Z,101184.50
2022-12-25T04:37:01.461Z,101158.09
2022-12-25T04:39:03.306Z,101126.97
2022-12-25T04:41:05.908Z,101162.41
2022-12-25T04:43:07.798Z,101184.16
2022-12-25T04:45:10.190Z,101170.09
2022-12-25T04:47:13.037Z,101177.22
2022-12-25T04:49:14.845Z,101164.28
2022-12-25T04:51:19.794Z,101189.03
2022-12-25T04:53:21.526Z,101176.09
2022-12-25T04:55:23.386Z,101191.56
2022-12-25T04:57:25.408Z,101169.44
2022-12-25T04:59:27.091Z,101166.38
2022-12-25T05:01:29.207Z,101178.53
2022-12-25T05:03:31.184Z,101163.06
2022-12-25T05:05:32.894Z,101167.03
2022-12-25T05:07:34.717Z,101159.91
2022-12-25T05:09:36.486Z,101168.81
2022-12-25T05:11:38.305Z,101191.78
2022-12-25T05:13:40.199Z,101157.16
2022-12-25T05:15:43.023Z,101195.41
2022-12-25T05:17:44.747Z,101187.53
2022-12-25T05:19:46.608Z,101186.78
2022-12-25T05:21:48.396Z,101188.88
2022-12-25T05:23:51.693Z,101167.66
2022-12-25T05:25:53.639Z,101181.84
2022-12-25T05:27:55.384Z,101178.84
2022-12-25T05:29:57.048Z,101204.41
2022-12-25T05:31:59.021Z,101170.22
2022-12-25T05:34:00.751Z,101209.81
2022-12-25T05:36:05.000Z,101185.94
2022-12-25T05:38:08.335Z,101210.78
2022-12-25T05:40:10.539Z,101210.66
2022-12-25T05:42:12.230Z,101196.69
2022-12-25T05:44:14.516Z,101172.31
2022-12-25T05:46:16.520Z,101203.06
2022-12-25T05:48:18.252Z,101207.28
2022-12-25T05:50:20.153Z,101214.19
2022-12-25T05:52:21.939Z,101221.06
2022-12-25T05:54:23.614Z,101229.88
2022-12-25T05:56:25.378Z,101240.75
2022-12-25T05:58:27.246Z,101226.03
2022-12-25T06:00:29.030Z,101227.25
2022-12-25T06:02:31.005Z,101235.81
2022-12-25T06:04:33.131Z,101241.81
2022-12-25T06:06:34.806Z,101256.88
2022-12-25T06:08:37.107Z,101255.38
2022-12-25T06:10:38.885Z,101270.84
2022-12-25T06:12:40.639Z,101266.81
2022-12-25T06:14:42.423Z,101261.19
2022-12-25T06:16:44.205Z,101288.09
2022-12-25T06:18:49.026Z,101271.97
2022-12-25T06:20:50.888Z,101271.31
2022-12-25T06:22:52.640Z,101282.78
2022-12-25T06:24:54.483Z,101283.34
2022-12-25T06:26:56.200Z,101281.22
2022-12-25T06:28:57.994Z,101280.56
2022-12-25T06:30:59.684Z,101298.03
2022-12-25T06:33:01.340Z,101303.19
2022-12-25T06:35:03.111Z,101304.25
2022-12-25T06:37:04.939Z,101257.03
2022-12-25T06:39:06.764Z,101288.22
2022-12-25T06:41:11.036Z,101299.56
2022-12-25T06:43:12.785Z,101313.84
2022-12-25T06:45:14.583Z,101262.50
2022-12-25T06:47:16.409Z,101298.75
2022-12-25T06:49:18.096Z,101314.69
2022-12-25T06:51:25.214Z,101324.63
2022-12-25T06:53:26.949Z,101318.44
2022-12-25T06:55:28.636Z,101311.13
2022-12-25T06:57:30.486Z,101329.88
2022-12-25T06:59:32.393Z,101295.16
2022-12-25T07:01:38.360Z,101340.09
2022-12-25T07:03:40.294Z,101297.63
2022-12-25T07:05:42.029Z,101337.22
2022-12-25T07:07:43.730Z,101342.09
2022-12-25T07:09:45.649Z,101343.78
2022-12-25T07:11:47.432Z,101340.59
2022-12-25T07:13:49.332Z,101356.34
2022-12-25T07:15:59.448Z,101356.81
2022-12-25T07:18:01.279Z,101364.72
2022-12-25T07:20:03.103Z,101379.72
2022-12-25T07:22:05.007Z,101382.63
2022-12-25T07:24:07.207Z,101382.53
2022-12-25T07:26:10.888Z,101379.78
2022-12-25T07:28:12.552Z,101394.91
2022-12-25T07:30:14.620Z,101399.41
2022-12-25T07:32:16.495Z,101406.75
2022-12-25T07:34:19.143Z,101400.81
2022-12-25T07:36:21.176Z,101408.53
2022-12-25T07:38:22.886Z,101410.41
2022-12-25T07:40:24.600Z,101396.16
2022-12-25T07:42:26.285Z,101403.16
2022-12-25T07:44:28.056Z,101408.06
2022-12-25T07:46:30.118Z,101410.69
2022-12-25T07:48:32.399Z,101393.22
2022-12-25T07:50:34.405Z,101413.13
2022-12-25T07:52:43.038Z,101410.41
2022-12-25T07:54:45.217Z,101427.50
2022-12-25T07:56:51.131Z,101423.09
2022-12-25T07:58:52.913Z,101422.91
2022-12-25T08:00:54.875Z,101416.69
2022-12-25T08:02:56.939Z,101427.47
2022-12-25T08:04:58.962Z,101402.81
2022-12-25T08:07:00.781Z,101411.53
2022-12-25T08:09:07.764Z,101438.44
2022-12-25T08:11:10.456Z,101442.13
2022-12-25T08:13:14.636Z,101453.09
2022-12-25T08:15:16.548Z,101434.63
2022-12-25T08:17:18.257Z,101450.88
2022-12-25T08:19:19.973Z,101453.41
2022-12-25T08:21:21.731Z,101444.91
2022-12-25T08:23:23.475Z,101447.94
2022-12-25T08:25:25.240Z,101454.13
2022-12-25T08:27:26.903Z,101432.09
2022-12-25T08:29:28.673Z,101439.84
2022-12-25T08:31:30.870Z,101447.00
2022-12-25T08:33:32.594Z,101431.25
2022-12-25T08:35:35.466Z,101434.50
2022-12-25T08:37:37.297Z,101446.75
2022-12-25T08:39:38.979Z,101434.53
2022-12-25T08:41:41.004Z,101448.91
2022-12-25T08:43:43.337Z,101448.91
2022-12-25T08:45:47.532Z,101416.97
2022-12-25T08:47:54.428Z,101427.69
2022-12-25T08:49:56.314Z,101438.41
2022-12-25T08:51:58.066Z,101426.94
2022-12-25T08:54:01.130Z,101413.03
2022-12-25T08:56:07.084Z,101430.56
2022-12-25T08:58:09.261Z,101444.44
2022-12-25T09:00:11.524Z,101445.28
2022-12-25T09:02:13.421Z,101448.78
2022-12-25T09:04:15.279Z,101453.38
2022-12-25T09:06:17.560Z,101426.34
2022-12-25T09:08:19.600Z,101436.09
2022-12-25T09:10:21.653Z,101454.41
2022-12-25T09:12:23.681Z,101454.75
2022-12-25T09:14:25.580Z,101456.53
2022-12-25T09:16:27.416Z,101426.53
2022-12-25T09:18:29.446Z,101466.72
2022-12-25T09:20:31.442Z,101456.75
2022-12-25T09:22:34.720Z,101461.56
2022-12-25T09:24:36.710Z,101457.06
2022-12-25T09:26:38.474Z,101467.22
2022-12-25T09:28:45.117Z,101472.94
2022-12-25T09:30:51.862Z,101458.38
2022-12-25T09:32:53.827Z,101438.47
2022-12-25T09:34:55.605Z,101470.59
2022-12-25T09:36:57.411Z,101463.91
2022-12-25T09:38:59.211Z,101453.22
2022-12-25T09:41:16.845Z,101482.25
2022-12-25T09:43:21.017Z,101467.03
2022-12-25T09:45:37.838Z,101465.97
2022-12-25T09:47:42.990Z,101457.34
2022-12-25T09:49:47.758Z,101483.81
2022-12-25T09:51:57.195Z,101462.78
2022-12-25T09:54:05.036Z,101480.91
2022-12-25T09:56:16.845Z,101488.72
2022-12-25T09:58:18.726Z,101485.81
2022-12-25T10:00:23.022Z,101481.28
2022-12-25T10:03:00.855Z,101488.06
2022-12-25T10:05:31.803Z,101489.66
2022-12-25T10:07:55.132Z,101477.41
2022-12-25T10:10:02.771Z,101474.16
2022-12-25T10:12:28.248Z,101476.38
2022-12-25T10:15:01.977Z,101475.81
2022-12-25T10:17:18.801Z,101472.53
2022-12-25T10:19:35.233Z,101459.31
2022-12-25T10:21:37.516Z,101481.59
2022-12-25T10:23:48.200Z,101482.53
2022-12-25T10:25:51.736Z,101484.44
2022-12-25T10:27:58.347Z,101475.63
2022-12-25T10:30:02.521Z,101489.06
2022-12-25T10:32:04.564Z,101496.09
2022-12-25T10:34:06.960Z,101470.66
2022-12-25T10:36:09.279Z,101481.19
2022-12-25T10:38:16.658Z,101480.34
2022-12-25T10:40:28.074Z,101483.53
2022-12-25T10:42:42.689Z,101482.19
2022-12-25T10:45:08.367Z,101472.81
2022-12-25T10:47:10.311Z,101474.97
2022-12-25T10:49:16.110Z,101454.69
2022-12-25T10:51:38.648Z,101483.44
2022-12-25T10:53:43.213Z,101463.22
2022-12-25T10:56:01.351Z,101489.75
2022-12-25T10:58:03.052Z,101491.59
2022-12-25T11:00:05.982Z,101475.44
2022-12-25T11:02:28.208Z,101480.88
2022-12-25T11:04:34.961Z,101475.00
2022-12-25T11:06:36.761Z,101458.94
2022-12-25T11:08:38.561Z,101481.28
2022-12-25T11:10:41.084Z,101481.41
2022-12-25T11:12:45.481Z,101469.94
2022-12-25T11:14:57.686Z,101473.19
2022-12-25T11:17:09.803Z,101474.97
2022-12-25T11:19:26.702Z,101476.53
2022-12-25T11:21:31.106Z,101477.09
2022-12-25T11:23:32.942Z,101474.00
2022-12-25T11:25:34.871Z,101460.50
2022-12-25T11:27:36.895Z,101473.75
2022-12-25T11:29:50.788Z,101471.97
2022-12-25T11:31:54.741Z,101471.69
2022-12-25T11:33:56.610Z,101470.69
2022-12-25T11:36:06.398Z,101467.19
2022-12-25T11:38:08.738Z,101471.63
2022-12-25T11:40:23.882Z,101459.34
2022-12-25T11:42:37.327Z,101468.53
2022-12-25T11:44:57.107Z,101471.00
2022-12-25T11:47:08.275Z,101462.25
2022-12-25T11:49:16.352Z,101461.16
2022-12-25T11:51:20.002Z,101460.00
2022-12-25T11:53:33.745Z,101463.88
2022-12-25T11:55:45.392Z,101470.53
2022-12-25T11:57:53.657Z,101475.31
2022-12-25T12:00:08.696Z,101475.13
2022-12-25T12:02:26.984Z,101477.72
2022-12-25T12:04:40.317Z,101473.69
2022-12-25T12:07:08.577Z,101472.19
2022-12-25T12:09:40.935Z,101467.91
2022-12-25T12:11:51.897Z,101466.50
2022-12-25T12:14:17.083Z,101458.91
2022-12-25T12:16:19.139Z,101466.22
2022-12-25T12:18:26.802Z,101456.94
2022-12-25T12:20:32.282Z,101451.41
2022-12-25T12:22:34.106Z,101449.13
2022-12-25T12:24:42.819Z,101453.06
2022-12-25T12:26:47.394Z,101443.03
2022-12-25T12:28:51.654Z,101443.50
2022-12-25T12:31:03.703Z,101446.31
2022-12-25T12:33:07.941Z,101445.16
2022-12-25T12:35:38.289Z,101439.53
2022-12-25T12:37:42.110Z,101440.03
2022-12-25T12:39:44.815Z,101438.56
2022-12-25T12:41:49.117Z,101442.19
2022-12-25T12:44:03.180Z,101428.94
2022-12-25T12:46:31.000Z,101438.88
2022-12-25T12:48:42.424Z,101425.69
2022-12-25T12:50:44.227Z,101423.69
2022-12-25T12:52:46.011Z,101435.50
2022-12-25T12:55:04.688Z,101436.78
2022-12-25T12:57:24.025Z,101417.66
2022-12-25T12:59:27.073Z,101444.94
2022-12-25T13:02:20.452Z,101446.94
2022-12-25T13:04:43.439Z,101462.75
2022-12-25T13:06:58.960Z,101469.25
2022-12-25T13:09:03.689Z,101462.81
2022-12-25T13:11:15.014Z,101467.59
2022-12-25T13:13:30.105Z,101448.19
2022-12-25T13:15:34.902Z,101456.31
2022-12-25T13:17:37.307Z,101473.63
2022-12-25T13:19:43.124Z,101466.75
2022-12-25T13:22:02.105Z,101464.03
2022-12-25T13:24:19.798Z,101473.41
2022-12-25T13:26:21.516Z,101470.06
2022-12-25T13:28:33.833Z,101474.56
2022-12-25T13:30:36.028Z,101448.63
2022-12-25T13:32:37.910Z,101477.94
2022-12-25T13:34:42.436Z,101476.34
2022-12-25T13:36:44.583Z,101463.88
2022-12-25T13:38:49.220Z,101481.31
2022-12-25T13:40:56.545Z,101467.47
2022-12-25T13:43:00.734Z,101474.50
2022-12-25T13:45:04.368Z,101482.13
2022-12-25T13:47:23.011Z,101313.50
2022-12-25T13:49:25.128Z,101470.13
2022-12-25T13:51:27.928Z,101482.84
2022-12-25T13:53:29.626Z,101470.41
2022-12-25T13:55:33.984Z,101449.16
2022-12-25T13:57:38.932Z,101486.25
2022-12-25T13:59:44.505Z,101482.50
2022-12-25T14:01:46.996Z,101478.91
2022-12-25T14:03:48.880Z,101456.13
2022-12-25T14:05:59.451Z,101463.47
2022-12-25T14:08:03.601Z,101483.06
2022-12-25T14:10:06.314Z,101456.13
2022-12-25T14:12:10.739Z,101476.78
2022-12-25T14:14:20.429Z,101469.63
2022-12-25T14:16:23.307Z,101456.09
2022-12-25T14:18:26.112Z,101466.94
2022-12-25T14:20:31.152Z,101461.69
2022-12-25T14:22:32.889Z,101460.25
2022-12-25T14:24:35.139Z,101462.59
2022-12-25T14:26:37.088Z,101465.44
2022-12-25T14:28:38.804Z,101483.91
2022-12-25T14:30:42.799Z,101490.88
2022-12-25T14:32:48.783Z,101490.13
2022-12-25T14:34:54.803Z,101492.66
2022-12-25T14:36:56.920Z,101497.44
2022-12-25T14:39:01.397Z,101493.22
2022-12-25T14:41:06.290Z,101475.38
2022-12-25T14:43:27.366Z,101484.03
2022-12-25T14:45:32.311Z,101498.03
2022-12-25T14:47:50.097Z,101464.50
2022-12-25T14:49:51.821Z,101495.28
2022-12-25T14:51:53.545Z,101477.81
2022-12-25T14:53:58.163Z,101499.78
2022-12-25T14:56:00.259Z,101501.41
2022-12-25T14:58:05.517Z,101482.59
2022-12-25T15:00:20.158Z,101499.59
2022-12-25T15:02:22.110Z,101496.13
2022-12-25T15:04:26.171Z,101474.91
2022-12-25T15:06:28.892Z,101500.34
2022-12-25T15:08:32.464Z,101484.19
2022-12-25T15:12:56.552Z,101492.94
2022-12-25T15:14:58.260Z,101493.97
2022-12-25T15:17:01.500Z,101495.28
2022-12-25T15:19:03.299Z,101493.69
2022-12-25T15:21:05.266Z,101478.38
2022-12-25T15:23:21.156Z,101468.25
2022-12-25T15:25:23.403Z,101507.19
2022-12-25T15:27:25.057Z,101501.41
2022-12-25T15:30:07.250Z,101451.34
2022-12-25T15:31:48.814Z,101497.25
2022-12-25T15:33:51.304Z,101495.56
2022-12-25T15:35:53.350Z,101485.78
2022-12-25T15:37:55.031Z,101484.47
2022-12-25T15:39:57.505Z,101505.53
2022-12-25T15:42:00.167Z,101489.84
2022-12-25T15:44:02.253Z,101489.63
2022-12-25T15:46:04.118Z,101506.19
2022-12-25T15:48:06.374Z,101504.84
2022-12-25T15:50:09.735Z,101498.69
2022-12-25T15:52:14.938Z,101490.03
2022-12-25T15:54:16.765Z,101520.81
2022-12-25T15:56:19.013Z,101505.16
2022-12-25T15:58:20.760Z,101512.00
2022-12-25T16:00:23.285Z,101506.34
2022-12-25T16:02:25.246Z,101522.22
2022-12-25T16:04:28.577Z,101528.44
2022-12-25T16:06:30.740Z,101495.94
2022-12-25T16:08:32.385Z,101527.09
2022-12-25T16:10:38.653Z,101529.56
2022-12-25T16:12:41.079Z,101522.03
2022-12-25T16:14:42.770Z,101506.44
2022-12-25T16:16:44.465Z,101491.69
2022-12-25T16:18:47.592Z,101526.28
2022-12-25T16:20:53.916Z,101515.38
2022-12-25T16:22:55.755Z,101511.63
2022-12-25T16:24:57.589Z,101509.28
2022-12-25T16:26:59.309Z,101508.50
2022-12-25T16:29:06.690Z,101512.09
2022-12-25T16:31:09.116Z,101451.78
2022-12-25T16:33:11.209Z,101479.31
2022-12-25T16:35:12.930Z,101473.22
2022-12-25T16:37:14.920Z,101477.69
2022-12-25T16:39:16.589Z,101501.28
2022-12-25T16:41:18.295Z,101478.47
2022-12-25T16:43:23.913Z,101498.84
2022-12-25T16:45:26.043Z,101480.06
2022-12-25T16:47:27.785Z,101486.25
2022-12-25T16:49:29.956Z,101473.19
2022-12-25T16:51:31.847Z,101475.72
2022-12-25T16:53:33.503Z,101473.19
2022-12-25T16:55:36.566Z,101450.53
2022-12-25T16:57:38.311Z,101477.50
2022-12-25T16:59:40.169Z,101444.16
2022-12-25T17:01:42.770Z,101448.09
2022-12-25T17:03:44.796Z,101471.03
2022-12-25T17:05:46.549Z,101470.81
2022-12-25T17:07:48.440Z,101456.34
2022-12-25T17:09:50.231Z,101456.97
2022-12-25T17:11:51.988Z,101419.03
2022-12-25T17:13:54.509Z,101455.88
2022-12-25T17:15:56.285Z,101435.69
2022-12-25T17:17:57.966Z,101430.25
2022-12-25T17:20:00.026Z,101442.91
2022-12-25T17:22:01.776Z,101450.31
2022-12-25T17:24:04.376Z,101435.50
2022-12-25T17:26:06.468Z,101448.81
2022-12-25T17:28:08.182Z,101471.59
2022-12-25T17:30:10.325Z,101451.72
2022-12-25T17:32:12.984Z,101429.69
2022-12-25T17:34:14.673Z,101441.34
2022-12-25T17:36:19.030Z,101451.28
2022-12-25T17:38:21.034Z,101459.84
2022-12-25T17:40:22.714Z,101462.16
2022-12-25T17:42:24.418Z,101467.63
2022-12-25T17:44:26.326Z,101484.38
2022-12-25T17:46:29.996Z,101467.13
2022-12-25T17:48:31.748Z,101473.63
2022-12-25T17:50:37.487Z,101455.25
2022-12-25T17:52:42.934Z,101454.28
2022-12-25T17:54:44.619Z,101453.94
2022-12-25T17:56:46.378Z,101464.25
2022-12-25T17:58:53.006Z,101464.34
2022-12-25T18:00:55.135Z,101427.94
2022-12-25T18:02:57.809Z,101456.38
2022-12-25T18:04:59.670Z,101449.38
2022-12-25T18:07:01.379Z,101433.47
2022-12-25T18:09:05.076Z,101454.28
2022-12-25T18:11:08.546Z,101454.47
2022-12-25T18:13:11.709Z,101441.59
2022-12-25T18:15:13.555Z,101425.31
2022-12-25T18:17:15.215Z,101433.47
2022-12-25T18:19:16.951Z,101450.88
2022-12-25T18:21:19.087Z,101447.31
2022-12-25T18:23:21.061Z,101440.25
2022-12-25T18:25:22.819Z,101407.47
2022-12-25T18:27:24.889Z,101408.31
2022-12-25T18:29:26.557Z,101436.34
2022-12-25T18:31:29.143Z,101427.75
2022-12-25T18:33:31.118Z,101424.56
2022-12-25T18:35:32.897Z,101420.81
2022-12-25T18:37:39.872Z,101409.56
2022-12-25T18:39:42.300Z,101367.56
2022-12-25T18:41:44.115Z,101402.06
2022-12-25T18:43:52.812Z,101374.97
2022-12-25T18:45:58.297Z,101384.09
2022-12-25T18:48:00.398Z,101409.19
2022-12-25T18:50:02.111Z,101394.91
2022-12-25T18:52:49.609Z,101408.63
2022-12-25T18:54:25.680Z,101407.88
2022-12-25T18:56:27.352Z,101394.97
2022-12-25T18:58:29.086Z,101414.03
2022-12-25T19:00:30.879Z,101414.06
2022-12-25T19:02:32.798Z,101417.81
2022-12-25T19:04:35.928Z,101402.03
2022-12-25T19:06:37.677Z,101397.22
2022-12-25T19:08:39.374Z,101405.34
2022-12-25T19:10:43.801Z,101390.28
2022-12-25T19:12:45.514Z,101394.94
2022-12-25T19:14:48.339Z,101369.25
2022-12-25T19:16:50.427Z,101398.22
2022-12-25T19:18:52.203Z,101378.88
2022-12-25T19:20:53.896Z,101404.16
2022-12-25T19:22:55.732Z,101394.03
2022-12-25T19:24:57.424Z,101385.19
2022-12-25T19:26:59.231Z,101413.66
2022-12-25T19:29:01.080Z,101417.16
2022-12-25T19:31:03.933Z,101413.22
2022-12-25T19:33:05.652Z,101405.53
2022-12-25T19:35:07.679Z,101405.16
2022-12-25T19:37:09.385Z,101409.69
2022-12-25T19:39:11.788Z,101393.28
2022-12-25T19:41:17.522Z,101390.53
2022-12-25T19:43:19.241Z,101413.09
2022-12-25T19:45:21.029Z,101407.53
2022-12-25T19:47:23.095Z,101381.00
2022-12-25T19:49:24.829Z,101384.38
2022-12-25T19:51:28.581Z,101349.22
2022-12-25T19:53:31.093Z,101376.22
2022-12-25T19:55:32.932Z,101362.19
2022-12-25T19:57:34.703Z,101371.50
2022-12-25T19:59:36.473Z,101358.88
2022-12-25T20:01:38.909Z,101353.31
2022-12-25T20:03:45.838Z,101363.28
2022-12-25T20:05:48.213Z,101354.31
2022-12-25T20:07:49.917Z,101355.69
2022-12-25T20:09:51.652Z,101331.44
2022-12-25T20:11:53.408Z,101318.47
2022-12-25T20:13:55.604Z,101336.31
2022-12-25T20:16:01.044Z,101335.16
2022-12-25T20:18:03.045Z,101328.44
2022-12-25T20:20:05.636Z,101331.19
2022-12-25T20:22:07.568Z,101333.81
2022-12-25T20:24:10.247Z,101308.91
2022-12-25T20:26:13.051Z,101328.47
2022-12-25T20:28:16.892Z,101329.41
2022-12-25T20:30:18.748Z,101285.22
2022-12-25T20:32:20.551Z,101315.56
2022-12-25T20:34:22.339Z,101319.00
2022-12-25T20:36:24.156Z,101324.63
2022-12-25T20:38:25.877Z,101308.38
2022-12-25T20:40:27.692Z,101321.81
2022-12-25T20:42:34.422Z,101269.69
2022-12-25T20:44:36.431Z,101321.38
2022-12-25T20:46:38.143Z,101319.94
2022-12-25T20:48:40.313Z,101296.13
2022-12-25T20:50:41.967Z,101316.84
2022-12-25T20:52:43.660Z,101283.06
2022-12-25T20:54:45.615Z,101287.41
2022-12-25T20:56:48.867Z,101282.63
2022-12-25T20:58:58.865Z,101314.50
2022-12-25T21:01:13.800Z,101270.06
2022-12-25T21:03:15.633Z,101290.81
2022-12-25T21:05:17.448Z,101290.13
2022-12-25T21:07:19.290Z,101290.06
2022-12-25T21:09:20.975Z,101283.84
2022-12-25T21:11:22.731Z,101268.66
2022-12-25T21:13:25.481Z,101277.75
2022-12-25T21:15:27.162Z,101275.53
2022-12-25T21:17:28.823Z,101272.13
2022-12-25T21:19:30.831Z,101246.97
2022-12-25T21:21:32.525Z,101260.72
2022-12-25T21:23:35.705Z,101246.63
2022-12-25T21:25:38.211Z,101218.59
2022-12-25T21:27:39.878Z,101234.41
2022-12-25T21:29:41.700Z,101226.88
2022-12-25T21:31:43.808Z,101223.06
2022-12-25T21:33:46.047Z,101223.06
2022-12-25T21:35:48.201Z,101199.78
2022-12-25T21:37:50.149Z,101200.78
2022-12-25T21:39:51.972Z,101222.94
2022-12-25T21:41:53.720Z,101220.16
2022-12-25T21:43:56.224Z,101230.81
2022-12-25T21:46:02.198Z,101238.13
2022-12-25T21:48:04.214Z,101241.06
2022-12-25T21:50:06.506Z,101239.28
2022-12-25T21:52:08.172Z,101230.16
2022-12-25T21:54:11.051Z,101236.34
2022-12-25T21:56:13.000Z,101224.28
2022-12-25T21:58:14.733Z,101176.47
2022-12-25T22:00:16.553Z,101194.66
2022-12-25T22:02:18.461Z,101199.91
2022-12-25T22:04:22.712Z,101211.13
2022-12-25T22:06:24.377Z,101201.00
2022-12-25T22:08:30.460Z,101181.97
2022-12-25T22:10:32.131Z,101178.34
2022-12-25T22:12:34.552Z,101198.22
2022-12-25T22:14:51.629Z,101187.97
2022-12-25T22:16:55.381Z,101167.47
2022-12-25T22:18:57.131Z,101181.63
2022-12-25T22:20:58.803Z,101163.22
2022-12-25T22:23:00.580Z,101179.63
2022-12-25T22:25:04.590Z,101184.44
2022-12-25T22:27:06.355Z,101167.09
2022-12-25T22:29:08.074Z,101145.53
2022-12-25T22:31:09.838Z,101162.03
2022-12-25T22:33:11.869Z,101150.78
2022-12-25T22:35:14.310Z,101156.03
2022-12-25T22:37:18.013Z,101152.69
2022-12-25T22:39:19.705Z,101160.56
2022-12-25T22:41:21.384Z,101152.41
2022-12-25T22:43:32.545Z,101156.03
2022-12-25T22:45:44.906Z,101154.19
2022-12-25T22:47:46.571Z,101112.75
2022-12-25T22:49:49.359Z,101131.22
2022-12-25T22:51:52.457Z,101145.94
2022-12-25T22:53:57.511Z,101132.06
2022-12-25T22:56:03.546Z,101139.75
2022-12-25T22:58:05.734Z,101136.00
2022-12-25T23:00:08.139Z,101141.06
2022-12-25T23:02:10.044Z,101128.03
2022-12-25T23:04:13.130Z,101123.47
2022-12-25T23:06:14.839Z,101115.09
2022-12-25T23:08:16.554Z,101108.44
2022-12-25T23:10:18.247Z,101127.56
2022-12-25T23:12:19.954Z,101124.94
2022-12-25T23:14:21.711Z,101123.72
2022-12-25T23:16:24.177Z,101105.91
2022-12-25T23:18:25.918Z,101123.25
2022-12-25T23:20:27.669Z,101101.53
2022-12-25T23:22:29.670Z,101089.34
2022-12-25T23:24:31.354Z,101091.41
2022-12-25T23:26:33.053Z,101082.41
2022-12-25T23:28:42.371Z,101082.88
2022-12-25T23:30:44.025Z,101070.44
2022-12-25T23:32:45.755Z,101056.38
2022-12-25T23:34:47.716Z,101068.81
2022-12-25T23:36:49.378Z,101047.22
2022-12-25T23:38:51.172Z,101072.50
2022-12-25T23:40:53.002Z,101073.72
2022-12-25T23:42:54.738Z,101068.81
2022-12-25T23:44:56.408Z,101089.63